createdAt,value
2019-04-01T00:00:37.716Z,69.45
2019-04-01T00:01:37.696Z,69.55
2019-04-01T00:02:37.719Z,69.55
2019-04-01T00:03:37.685Z,69.55
2019-04-01T00:04:37.729Z,69.65
2019-04-01T00:05:37.656Z,69.76
2019-04-01T00:06:37.649Z,69.76
2019-04-01T00:07:37.639Z,69.65
2019-04-01T00:08:37.639Z,69.76
2019-04-01T00:09:37.657Z,69.86
2019-04-01T00:10:37.599Z,69.86
2019-04-01T00:11:37.598Z,69.96
2019-04-01T00:12:37.590Z,69.86
2019-04-01T00:13:37.605Z,70.07
2019-04-01T00:14:37.555Z,69.96
2019-04-01T00:15:37.570Z,70.07
2019-04-01T00:16:37.536Z,70.28
2019-04-01T00:17:37.566Z,70.31
2019-04-01T00:18:37.516Z,70.41
2019-04-01T00:19:37.505Z,70.62
2019-04-01T00:20:37.495Z,70.41
2019-04-01T00:21:37.485Z,70.62
2019-04-01T00:22:37.548Z,70.51
2019-04-01T00:23:37.456Z,70.51
2019-04-01T00:24:37.457Z,70.51
2019-04-01T00:25:37.452Z,70.62
2019-04-01T00:26:37.424Z,70.83
2019-04-01T00:27:37.455Z,70.72
2019-04-01T00:28:37.414Z,70.51
2019-04-01T00:29:37.409Z,70.51
2019-04-01T00:30:37.388Z,70.51
2019-04-01T00:31:37.418Z,70.62
2019-04-01T00:32:37.364Z,70.83
2019-04-01T00:33:37.356Z,71.03
2019-04-01T00:34:37.344Z,71.03
2019-04-01T00:35:37.345Z,70.72
2019-04-01T00:36:37.354Z,70.83
2019-04-01T00:37:37.305Z,70.83
2019-04-01T00:38:37.304Z,70.93
2019-04-01T00:39:37.294Z,71.03
2019-04-01T00:40:37.275Z,71.14
2019-04-01T00:41:37.278Z,71.24
2019-04-01T00:42:37.294Z,71.03
2019-04-01T00:43:37.244Z,71.28
2019-04-01T00:44:40.201Z,71.24
2019-04-01T00:45:37.244Z,71.34
2019-04-01T00:46:37.227Z,71.48
2019-04-01T00:47:37.256Z,71.48
2019-04-01T00:48:37.215Z,71.59
2019-04-01T00:49:37.174Z,71.48
2019-04-01T00:50:37.175Z,71.69
2019-04-01T00:51:37.194Z,71.59
2019-04-01T00:52:37.143Z,71.69
2019-04-01T00:53:37.134Z,71.59
2019-04-01T00:54:37.123Z,71.69
2019-04-01T00:55:37.123Z,71.69
2019-04-01T00:56:37.144Z,71.69
2019-04-01T00:57:37.094Z,71.59
2019-04-01T00:58:37.083Z,71.80
2019-04-01T00:59:37.093Z,71.59
2019-04-01T01:00:37.062Z,71.69
2019-04-01T01:01:37.053Z,71.90
2019-04-01T01:02:37.093Z,72.11
2019-04-01T01:03:37.067Z,72.21
2019-04-01T01:04:37.082Z,72.11
2019-04-01T01:05:37.003Z,72.21
2019-04-01T01:06:36.995Z,72.14
2019-04-01T01:07:36.994Z,72.14
2019-04-01T01:08:36.996Z,72.24
2019-04-01T01:09:36.973Z,72.34
2019-04-01T01:10:36.953Z,72.24
2019-04-01T01:11:36.952Z,72.34
2019-04-01T01:12:36.937Z,72.14
2019-04-01T01:13:36.953Z,72.45
2019-04-01T01:14:36.926Z,72.45
2019-04-01T01:15:36.903Z,72.55
2019-04-01T01:16:36.892Z,72.45
2019-04-01T01:17:36.885Z,72.55
2019-04-01T01:18:36.863Z,72.34
2019-04-01T01:19:36.903Z,72.34
2019-04-01T01:20:36.852Z,72.45
2019-04-01T01:21:36.842Z,72.45
2019-04-01T01:22:36.865Z,72.55
2019-04-01T01:23:36.822Z,72.66
2019-04-01T01:24:36.812Z,72.55
2019-04-01T01:25:36.802Z,72.45
2019-04-01T01:26:36.791Z,72.45
2019-04-01T01:27:36.815Z,72.45
2019-04-01T01:28:36.762Z,72.24
2019-04-01T01:29:36.752Z,72.34
2019-04-01T01:30:36.780Z,72.66
2019-04-01T01:31:36.732Z,72.66
2019-04-01T01:32:36.752Z,72.76
2019-04-01T01:33:36.701Z,72.76
2019-04-01T01:34:36.705Z,72.66
2019-04-01T01:35:36.692Z,72.45
2019-04-01T01:36:36.682Z,72.45
2019-04-01T01:37:36.681Z,72.66
2019-04-01T01:38:36.693Z,72.66
2019-04-01T01:39:36.655Z,72.66
2019-04-01T01:40:36.631Z,72.76
2019-04-01T01:41:36.624Z,72.86
2019-04-01T01:42:36.613Z,72.76
2019-04-01T01:43:36.684Z,72.86
2019-04-01T01:44:36.591Z,72.90
2019-04-01T01:45:36.583Z,72.80
2019-04-01T01:46:36.570Z,72.80
2019-04-01T01:47:36.552Z,72.90
2019-04-01T01:48:36.541Z,73.11
2019-04-01T01:49:36.571Z,73.21
2019-04-01T01:50:36.544Z,73.11
2019-04-01T01:51:36.519Z,72.59
2019-04-01T01:52:36.522Z,72.80
2019-04-01T01:53:36.490Z,73.11
2019-04-01T01:54:36.481Z,73.00
2019-04-01T01:55:36.510Z,73.00
2019-04-01T01:56:36.476Z,73.11
2019-04-01T01:57:36.451Z,73.11
2019-04-01T01:58:36.440Z,73.11
2019-04-01T01:59:36.421Z,73.11
2019-04-01T02:00:36.420Z,73.11
2019-04-01T02:01:36.441Z,73.32
2019-04-01T02:02:36.400Z,73.32
2019-04-01T02:03:36.406Z,73.32
2019-04-01T02:04:36.370Z,73.52
2019-04-01T02:05:36.390Z,73.52
2019-04-01T02:06:36.359Z,73.63
2019-04-01T02:07:36.355Z,73.56
2019-04-01T02:08:36.330Z,73.77
2019-04-01T02:09:36.320Z,73.77
2019-04-01T02:10:36.309Z,73.77
2019-04-01T02:11:36.319Z,73.66
2019-04-01T02:12:36.301Z,73.77
2019-04-01T02:13:36.366Z,73.66
2019-04-01T02:14:36.259Z,73.56
2019-04-01T02:15:36.268Z,73.56
2019-04-01T02:16:36.239Z,73.56
2019-04-01T02:17:36.270Z,73.66
2019-04-01T02:18:36.239Z,73.66
2019-04-01T02:19:36.220Z,73.46
2019-04-01T02:20:36.219Z,73.56
2019-04-01T02:21:36.248Z,73.25
2019-04-01T02:22:36.187Z,73.14
2019-04-01T02:23:36.178Z,73.25
2019-04-01T02:24:36.167Z,73.35
2019-04-01T02:25:36.149Z,73.35
2019-04-01T02:26:36.139Z,73.46
2019-04-01T02:27:36.139Z,73.35
2019-04-01T02:28:36.118Z,73.46
2019-04-01T02:29:36.112Z,73.35
2019-04-01T02:30:36.150Z,73.46
2019-04-01T02:31:36.096Z,73.35
2019-04-01T02:32:36.109Z,73.25
2019-04-01T02:33:36.059Z,73.25
2019-04-01T02:34:36.059Z,73.46
2019-04-01T02:35:36.054Z,73.56
2019-04-01T02:36:36.034Z,73.46
2019-04-01T02:37:36.062Z,73.46
2019-04-01T02:38:36.028Z,73.25
2019-04-01T02:39:35.999Z,73.46
2019-04-01T02:40:36.002Z,73.35
2019-04-01T02:41:35.987Z,73.35
2019-04-01T02:42:36.009Z,73.35
2019-04-01T02:43:35.962Z,73.35
2019-04-01T02:44:35.951Z,72.93
2019-04-01T02:45:35.957Z,73.14
2019-04-01T02:46:35.934Z,73.25
2019-04-01T02:47:35.920Z,73.35
2019-04-01T02:48:35.941Z,73.14
2019-04-01T02:49:35.979Z,73.25
2019-04-01T02:50:35.879Z,73.35
2019-04-01T02:51:35.868Z,73.46
2019-04-01T02:52:35.885Z,73.35
2019-04-01T02:53:35.870Z,73.35
2019-04-01T02:54:35.837Z,73.14
2019-04-01T02:55:35.857Z,72.52
2019-04-01T02:56:35.830Z,72.52
2019-04-01T02:57:35.807Z,72.00
2019-04-01T02:58:35.806Z,71.79
2019-04-01T02:59:35.777Z,72.00
2019-04-01T03:00:35.827Z,72.31
2019-04-01T03:01:35.777Z,72.31
2019-04-01T03:02:35.757Z,72.10
2019-04-01T03:03:35.738Z,71.58
2019-04-01T03:04:35.740Z,71.17
2019-04-01T03:05:35.732Z,71.17
2019-04-01T03:06:35.766Z,71.48
2019-04-01T03:07:35.707Z,71.79
2019-04-01T03:08:35.686Z,71.48
2019-04-01T03:09:35.676Z,71.06
2019-04-01T03:10:35.689Z,71.06
2019-04-01T03:11:35.657Z,71.06
2019-04-01T03:12:35.710Z,70.51
2019-04-01T03:13:35.649Z,70.20
2019-04-01T03:14:35.629Z,70.40
2019-04-01T03:15:35.658Z,70.51
2019-04-01T03:16:35.607Z,70.40
2019-04-01T03:17:35.600Z,69.99
2019-04-01T03:18:35.609Z,70.20
2019-04-01T03:19:35.568Z,70.40
2019-04-01T03:20:35.594Z,70.72
2019-04-01T03:21:35.548Z,70.61
2019-04-01T03:22:35.548Z,71.03
2019-04-01T03:23:35.539Z,70.82
2019-04-01T03:24:35.517Z,70.75
2019-04-01T03:25:35.507Z,71.06
2019-04-01T03:26:35.537Z,71.27
2019-04-01T03:27:35.485Z,71.06
2019-04-01T03:28:35.474Z,71.17
2019-04-01T03:29:35.462Z,71.06
2019-04-01T03:30:35.458Z,71.17
2019-04-01T03:31:35.493Z,71.17
2019-04-01T03:32:35.486Z,70.85
2019-04-01T03:33:35.424Z,70.64
2019-04-01T03:34:35.416Z,70.95
2019-04-01T03:35:35.407Z,71.06
2019-04-01T03:36:35.396Z,71.27
2019-04-01T03:37:35.439Z,70.95
2019-04-01T03:38:35.388Z,70.85
2019-04-01T03:39:35.355Z,70.43
2019-04-01T03:40:35.359Z,70.33
2019-04-01T03:41:35.344Z,70.33
2019-04-01T03:42:35.365Z,70.02
2019-04-01T03:43:35.398Z,70.23
2019-04-01T03:44:35.305Z,70.43
2019-04-01T03:45:35.295Z,70.02
2019-04-01T03:46:35.276Z,70.02
2019-04-01T03:47:35.301Z,69.92
2019-04-01T03:48:35.257Z,69.92
2019-04-01T03:49:35.285Z,69.71
2019-04-01T03:50:35.244Z,69.81
2019-04-01T03:51:35.235Z,69.71
2019-04-01T03:52:35.224Z,69.71
2019-04-01T03:53:35.245Z,69.81
2019-04-01T03:54:35.220Z,69.81
2019-04-01T03:55:35.201Z,69.71
2019-04-01T03:56:35.177Z,69.71
2019-04-01T03:57:35.168Z,69.81
2019-04-01T03:58:35.227Z,69.81
2019-04-01T03:59:35.194Z,69.71
2019-04-01T04:00:35.133Z,69.92
2019-04-01T04:01:35.123Z,69.81
2019-04-01T04:02:35.114Z,69.71
2019-04-01T04:03:35.124Z,69.60
2019-04-01T04:04:35.094Z,69.92
2019-04-01T04:05:35.121Z,70.02
2019-04-01T04:06:35.063Z,70.02
2019-04-01T04:07:35.054Z,69.60
2019-04-01T04:08:35.061Z,69.40
2019-04-01T04:09:35.049Z,69.40
2019-04-01T04:10:35.085Z,69.40
2019-04-01T04:11:35.014Z,69.50
2019-04-01T04:12:35.076Z,69.40
2019-04-01T04:13:34.994Z,69.40
2019-04-01T04:14:34.982Z,69.60
2019-04-01T04:15:35.010Z,69.71
2019-04-01T04:16:34.964Z,70.12
2019-04-01T04:17:34.958Z,70.23
2019-04-01T04:18:34.982Z,69.95
2019-04-01T04:19:34.936Z,69.74
2019-04-01T04:20:34.923Z,70.05
2019-04-01T04:21:34.914Z,70.26
2019-04-01T04:22:34.945Z,70.05
2019-04-01T04:23:34.886Z,69.84
2019-04-01T04:24:34.884Z,69.71
2019-04-01T04:25:34.903Z,69.43
2019-04-01T04:26:34.952Z,69.64
2019-04-01T04:27:34.842Z,69.53
2019-04-01T04:28:34.832Z,69.74
2019-04-01T04:29:34.826Z,69.84
2019-04-01T04:30:34.801Z,69.95
2019-04-01T04:31:34.803Z,69.74
2019-04-01T04:32:34.812Z,69.64
2019-04-01T04:33:34.794Z,69.43
2019-04-01T04:34:34.762Z,69.53
2019-04-01T04:35:34.752Z,69.32
2019-04-01T04:36:34.756Z,69.01
2019-04-01T04:37:34.752Z,69.22
2019-04-01T04:38:34.738Z,69.12
2019-04-01T04:39:34.722Z,69.22
2019-04-01T04:40:34.702Z,69.22
2019-04-01T04:41:34.691Z,69.12
2019-04-01T04:42:34.681Z,69.12
2019-04-01T04:43:34.705Z,68.80
2019-04-01T04:44:34.670Z,68.60
2019-04-01T04:45:34.665Z,68.60
2019-04-01T04:46:34.657Z,68.80
2019-04-01T04:47:34.631Z,68.60
2019-04-01T04:48:34.634Z,68.60
2019-04-01T04:49:34.619Z,68.60
2019-04-01T04:50:34.591Z,68.91
2019-04-01T04:51:34.591Z,68.80
2019-04-01T04:52:34.581Z,68.91
2019-04-01T04:53:34.560Z,68.70
2019-04-01T04:54:34.573Z,68.60
2019-04-01T04:55:34.550Z,68.46
2019-04-01T04:56:34.540Z,68.35
2019-04-01T04:57:34.520Z,68.66
2019-04-01T04:58:34.510Z,68.56
2019-04-01T04:59:34.507Z,68.35
2019-04-01T05:00:34.490Z,68.25
2019-04-01T05:01:34.509Z,68.35
2019-04-01T05:02:34.469Z,67.94
2019-04-01T05:03:34.464Z,68.25
2019-04-01T05:04:34.449Z,68.35
2019-04-01T05:05:34.439Z,68.25
2019-04-01T05:06:34.435Z,68.46
2019-04-01T05:07:34.429Z,68.56
2019-04-01T05:08:34.409Z,68.77
2019-04-01T05:09:34.403Z,68.35
2019-04-01T05:10:34.388Z,68.46
2019-04-01T05:11:34.402Z,68.46
2019-04-01T05:12:34.373Z,68.60
2019-04-01T05:13:37.830Z,68.70
2019-04-01T05:14:34.339Z,68.80
2019-04-01T05:15:34.337Z,68.80
2019-04-01T05:16:34.317Z,68.70
2019-04-01T05:17:34.308Z,68.91
2019-04-01T05:18:34.295Z,68.91
2019-04-01T05:19:34.298Z,69.12
2019-04-01T05:20:34.288Z,69.01
2019-04-01T05:21:34.269Z,69.01
2019-04-01T05:22:34.248Z,69.12
2019-04-01T05:23:34.268Z,69.12
2019-04-01T05:24:34.268Z,69.01
2019-04-01T05:25:34.248Z,69.22
2019-04-01T05:26:34.229Z,69.22
2019-04-01T05:27:34.210Z,69.12
2019-04-01T05:28:34.196Z,69.01
2019-04-01T05:29:34.187Z,69.01
2019-04-01T05:30:34.208Z,68.70
2019-04-01T05:31:34.165Z,69.01
2019-04-01T05:32:34.148Z,68.80
2019-04-01T05:33:34.137Z,68.80
2019-04-01T05:34:34.128Z,68.91
2019-04-01T05:35:34.118Z,68.70
2019-04-01T05:36:34.182Z,68.70
2019-04-01T05:37:34.111Z,68.91
2019-04-01T05:38:34.077Z,68.80
2019-04-01T05:39:34.067Z,68.91
2019-04-01T05:40:34.057Z,68.49
2019-04-01T05:41:34.047Z,68.25
2019-04-01T05:42:34.076Z,68.56
2019-04-01T05:43:34.029Z,68.35
2019-04-01T05:44:34.017Z,67.83
2019-04-01T05:45:34.046Z,67.94
2019-04-01T05:46:34.076Z,67.94
2019-04-01T05:47:33.977Z,68.04
2019-04-01T05:48:33.976Z,68.04
2019-04-01T05:49:33.968Z,68.15
2019-04-01T05:50:33.955Z,67.83
2019-04-01T05:51:33.946Z,66.97
2019-04-01T05:52:33.990Z,66.97
2019-04-01T05:53:33.916Z,66.77
2019-04-01T05:54:33.928Z,67.18
2019-04-01T05:55:33.947Z,66.66
2019-04-01T05:56:33.886Z,66.45
2019-04-01T05:57:33.876Z,66.14
2019-04-01T05:58:33.866Z,65.69
2019-04-01T05:59:33.869Z,65.28
2019-04-01T06:00:33.846Z,65.28
2019-04-01T06:01:33.875Z,65.38
2019-04-01T06:02:33.826Z,65.38
2019-04-01T06:03:33.816Z,65.14
2019-04-01T06:04:33.796Z,64.73
2019-04-01T06:05:33.785Z,64.73
2019-04-01T06:06:33.818Z,64.62
2019-04-01T06:07:33.778Z,65.14
2019-04-01T06:08:33.809Z,65.04
2019-04-01T06:09:33.758Z,64.94
2019-04-01T06:10:33.736Z,64.94
2019-04-01T06:11:33.726Z,65.25
2019-04-01T06:12:33.727Z,64.70
2019-04-01T06:13:33.726Z,64.90
2019-04-01T06:14:33.698Z,65.11
2019-04-01T06:15:33.677Z,64.80
2019-04-01T06:16:33.676Z,64.70
2019-04-01T06:17:33.656Z,64.18
2019-04-01T06:18:33.726Z,64.59
2019-04-01T06:19:33.645Z,64.07
2019-04-01T06:20:33.640Z,63.35
2019-04-01T06:21:33.615Z,63.42
2019-04-01T06:22:33.613Z,63.84
2019-04-01T06:23:33.595Z,63.63
2019-04-01T06:24:33.620Z,61.97
2019-04-01T06:25:33.576Z,61.43
2019-04-01T06:26:33.568Z,60.60
2019-04-01T06:27:33.554Z,59.74
2019-04-01T06:28:33.545Z,59.42
2019-04-01T06:29:33.565Z,59.42
2019-04-01T06:30:33.573Z,59.42
2019-04-01T06:31:33.505Z,59.50
2019-04-01T06:32:33.507Z,59.30
2019-04-01T06:33:33.484Z,58.78
2019-04-01T06:34:33.475Z,58.88
2019-04-01T06:35:33.475Z,58.98
2019-04-01T06:36:33.503Z,58.98
2019-04-01T06:37:33.444Z,58.98
2019-04-01T06:38:33.424Z,58.88
2019-04-01T06:39:33.425Z,58.98
2019-04-01T06:40:33.444Z,59.09
2019-04-01T06:41:33.463Z,58.98
2019-04-01T06:42:33.395Z,59.40
2019-04-01T06:43:33.414Z,59.09
2019-04-01T06:44:33.375Z,58.88
2019-04-01T06:45:33.354Z,59.16
2019-04-01T06:46:33.353Z,59.16
2019-04-01T06:47:33.347Z,59.47
2019-04-01T06:48:33.364Z,58.95
2019-04-01T06:49:33.314Z,58.33
2019-04-01T06:50:33.357Z,58.33
2019-04-01T06:51:33.284Z,58.02
2019-04-01T06:52:33.286Z,57.81
2019-04-01T06:53:33.265Z,58.10
2019-04-01T06:54:33.277Z,58.00
2019-04-01T06:55:33.254Z,57.35
2019-04-01T06:56:33.297Z,57.63
2019-04-01T06:57:33.233Z,56.37
2019-04-01T06:58:33.227Z,55.82
2019-04-01T06:59:33.212Z,55.18
2019-04-01T07:00:33.194Z,54.86
2019-04-01T07:01:33.201Z,54.53
2019-04-01T07:02:33.213Z,54.12
2019-04-01T07:03:33.174Z,54.53
2019-04-01T07:04:33.146Z,54.09
2019-04-01T07:05:33.135Z,54.30
2019-04-01T07:06:33.124Z,54.30
2019-04-01T07:07:33.177Z,53.76
2019-04-01T07:08:33.125Z,53.24
2019-04-01T07:09:33.095Z,52.83
2019-04-01T07:10:33.105Z,53.11
2019-04-01T07:11:33.182Z,53.01
2019-04-01T07:12:33.123Z,53.40
2019-04-01T07:13:33.084Z,52.88
2019-04-01T07:14:33.034Z,52.16
2019-04-01T07:15:33.064Z,52.37
2019-04-01T07:16:33.017Z,52.26
2019-04-01T07:17:33.004Z,52.58
2019-04-01T07:18:32.994Z,52.55
2019-04-01T07:19:33.047Z,52.34
2019-04-01T07:20:32.976Z,52.24
2019-04-01T07:21:32.968Z,51.50
2019-04-01T07:22:32.955Z,52.01
2019-04-01T07:23:32.947Z,51.81
2019-04-01T07:24:32.935Z,51.06
2019-04-01T07:25:34.287Z,50.96
2019-04-01T07:26:32.916Z,51.47
2019-04-01T07:27:32.905Z,51.47
2019-04-01T07:28:32.925Z,50.96
2019-04-01T07:29:32.876Z,50.73
2019-04-01T07:30:32.903Z,50.83
2019-04-01T07:31:32.857Z,50.73
2019-04-01T07:32:32.845Z,50.73
2019-04-01T07:33:32.849Z,50.11
2019-04-01T07:34:32.865Z,50.73
2019-04-01T07:35:32.815Z,50.73
2019-04-01T07:36:32.808Z,50.60
2019-04-01T07:37:32.825Z,50.19
2019-04-01T07:38:32.784Z,50.50
2019-04-01T07:39:32.804Z,50.16
2019-04-01T07:40:32.755Z,49.86
2019-04-01T07:41:32.755Z,49.65
2019-04-01T07:42:32.747Z,49.96
2019-04-01T07:43:32.725Z,49.65
2019-04-01T07:44:32.715Z,49.52
2019-04-01T07:45:34.616Z,49.52
2019-04-01T07:46:32.697Z,49.09
2019-04-01T07:47:32.689Z,48.58
2019-04-01T07:48:32.693Z,48.79
2019-04-01T07:49:32.666Z,48.47
2019-04-01T07:50:32.646Z,48.68
2019-04-01T07:51:32.676Z,48.68
2019-04-01T07:52:32.627Z,48.76
2019-04-01T07:53:32.617Z,48.07
2019-04-01T07:54:32.598Z,48.58
2019-04-01T07:55:32.627Z,48.89
2019-04-01T07:56:32.586Z,48.47
2019-04-01T07:57:32.883Z,49.38
2019-04-01T07:58:32.556Z,48.25
2019-04-01T07:59:32.556Z,47.84
2019-04-01T08:00:32.536Z,47.53
2019-04-01T08:01:32.537Z,47.12
2019-04-01T08:02:32.516Z,47.84
2019-04-01T08:03:32.547Z,47.84
2019-04-01T08:04:32.532Z,47.63
2019-04-01T08:05:32.480Z,48.25
2019-04-01T08:06:32.467Z,48.02
2019-04-01T08:07:32.458Z,47.20
2019-04-01T08:08:32.510Z,47.92
2019-04-01T08:09:32.439Z,48.10
2019-04-01T08:10:32.437Z,48.39
2019-04-01T08:11:32.427Z,47.16
2019-04-01T08:12:32.408Z,46.93
2019-04-01T08:13:32.539Z,47.22
2019-04-01T08:14:32.401Z,46.30
2019-04-01T08:15:32.378Z,45.57
2019-04-01T08:16:32.412Z,45.98
2019-04-01T08:17:32.349Z,45.47
2019-04-01T08:18:34.053Z,45.09
2019-04-01T08:19:32.337Z,45.29
2019-04-01T08:20:32.321Z,46.21
2019-04-01T08:21:32.311Z,46.39
2019-04-01T08:22:32.325Z,45.89
2019-04-01T08:23:32.293Z,45.57
2019-04-01T08:24:32.320Z,45.68
2019-04-01T08:25:32.260Z,45.97
2019-04-01T08:26:32.253Z,45.76
2019-04-01T08:27:32.250Z,44.84
2019-04-01T08:28:32.231Z,45.43
2019-04-01T08:29:32.228Z,45.25
2019-04-01T08:30:32.330Z,44.64
2019-04-01T08:31:32.201Z,44.94
2019-04-01T08:32:32.181Z,44.23
2019-04-01T08:33:32.196Z,45.25
2019-04-01T08:34:32.171Z,44.73
2019-04-01T08:35:32.191Z,45.35
2019-04-01T08:36:32.141Z,45.45
2019-04-01T08:37:32.141Z,45.76
2019-04-01T08:38:32.125Z,45.23
2019-04-01T08:39:32.125Z,44.82
2019-04-01T08:40:32.132Z,44.51
2019-04-01T08:41:32.122Z,44.41
2019-04-01T08:42:32.082Z,44.29
2019-04-01T08:43:32.102Z,44.29
2019-04-01T08:44:32.073Z,44.49
2019-04-01T08:45:32.056Z,44.78
2019-04-01T08:46:32.037Z,43.85
2019-04-01T08:47:32.053Z,43.96
2019-04-01T08:48:35.396Z,44.85
2019-04-01T08:49:31.997Z,43.76
2019-04-01T08:50:31.995Z,43.35
2019-04-01T08:51:32.014Z,43.35
2019-04-01T08:52:31.977Z,43.53
2019-04-01T08:53:31.966Z,43.53
2019-04-01T08:54:31.946Z,43.43
2019-04-01T08:55:31.934Z,43.53
2019-04-01T08:56:31.956Z,43.41
2019-04-01T08:57:31.930Z,44.02
2019-04-01T08:58:31.895Z,43.38
2019-04-01T08:59:31.925Z,42.97
2019-04-01T09:00:31.885Z,43.49
2019-04-01T09:01:35.551Z,43.57
2019-04-01T09:02:31.864Z,44.18
2019-04-01T09:03:31.847Z,42.94
2019-04-01T09:04:31.876Z,43.32
2019-04-01T09:05:31.818Z,41.69
2019-04-01T09:06:31.835Z,42.41
2019-04-01T09:07:31.828Z,42.61
2019-04-01T09:08:31.787Z,41.28
2019-04-01T09:09:31.790Z,41.08
2019-04-01T09:10:31.767Z,41.82
2019-04-01T09:11:31.758Z,41.22
2019-04-01T09:12:31.748Z,41.83
2019-04-01T09:13:31.801Z,42.16
2019-04-01T09:14:31.728Z,42.57
2019-04-01T09:15:31.708Z,44.08
2019-04-01T09:16:31.708Z,42.92
2019-04-01T09:17:31.692Z,42.08
2019-04-01T09:18:31.719Z,41.45
2019-04-01T09:19:31.669Z,41.35
2019-04-01T09:20:31.668Z,41.55
2019-04-01T09:21:31.651Z,41.94
2019-04-01T09:22:31.653Z,40.23
2019-04-01T09:23:31.640Z,41.55
2019-04-01T09:24:31.611Z,40.72
2019-04-01T09:25:31.623Z,39.51
2019-04-01T09:26:31.601Z,40.74
2019-04-01T09:27:31.591Z,39.60
2019-04-01T09:28:31.621Z,39.92
2019-04-01T09:29:31.572Z,40.84
2019-04-01T09:30:31.552Z,41.14
2019-04-01T09:31:31.542Z,41.05
2019-04-01T09:32:31.546Z,40.92
2019-04-01T09:33:31.537Z,39.89
2019-04-01T09:34:31.543Z,39.07
2019-04-01T09:35:31.494Z,39.09
2019-04-01T09:36:31.493Z,39.19
2019-04-01T09:37:31.487Z,38.60
2019-04-01T09:38:31.466Z,40.03
2019-04-01T09:39:31.507Z,39.31
2019-04-01T09:40:31.446Z,39.40
2019-04-01T09:41:31.434Z,39.28
2019-04-01T09:42:31.521Z,39.28
2019-04-01T09:43:31.407Z,38.36
2019-04-01T09:44:36.922Z,39.26
2019-04-01T09:45:32.397Z,38.04
2019-04-01T09:46:31.375Z,37.95
2019-04-01T09:47:31.375Z,38.67
2019-04-01T09:48:31.426Z,39.58
2019-04-01T09:49:31.360Z,39.46
2019-04-01T09:50:31.336Z,39.54
2019-04-01T09:51:31.340Z,39.04
2019-04-01T09:52:31.322Z,38.10
2019-04-01T09:53:31.307Z,38.02
2019-04-01T09:54:31.350Z,37.90
2019-04-01T09:55:31.277Z,37.90
2019-04-01T09:56:31.267Z,37.39
2019-04-01T09:57:31.258Z,36.90
2019-04-01T09:58:31.261Z,36.80
2019-04-01T09:59:31.278Z,37.63
2019-04-01T10:00:31.228Z,37.34
2019-04-01T10:01:31.221Z,37.85
2019-04-01T10:02:32.411Z,38.24
2019-04-01T10:03:31.250Z,36.92
2019-04-01T10:04:31.180Z,37.14
2019-04-01T10:05:31.183Z,37.73
2019-04-01T10:06:31.160Z,36.63
2019-04-01T10:07:31.181Z,37.14
2019-04-01T10:08:42.007Z,37.85
2019-04-01T10:09:32.161Z,36.83
2019-04-01T10:10:31.144Z,38.36
2019-04-01T10:11:31.101Z,38.65
2019-04-01T10:12:31.091Z,39.44
2019-04-01T10:13:31.158Z,37.39
2019-04-01T10:14:31.080Z,38.10
2019-04-01T10:15:31.063Z,36.68
2019-04-01T10:16:31.064Z,37.27
2019-04-01T10:17:31.043Z,36.97
2019-04-01T10:18:31.085Z,36.44
2019-04-01T10:19:31.023Z,35.66
2019-04-01T10:20:31.004Z,36.38
2019-04-01T10:21:31.006Z,37.29
2019-04-01T10:22:30.994Z,37.59
2019-04-01T10:23:30.995Z,36.38
2019-04-01T10:24:30.995Z,35.86
2019-04-01T10:25:30.954Z,36.80
2019-04-01T10:26:30.945Z,36.88
2019-04-01T10:27:30.925Z,37.39
2019-04-01T10:28:32.378Z,38.29
2019-04-01T10:29:30.906Z,37.56
2019-04-01T10:30:30.937Z,36.83
2019-04-01T10:31:30.888Z,36.73
2019-04-01T10:32:30.877Z,35.95
2019-04-01T10:33:30.867Z,36.56
2019-04-01T10:34:34.004Z,36.58
2019-04-01T10:35:30.886Z,36.58
2019-04-01T10:36:30.828Z,36.99
2019-04-01T10:37:30.861Z,37.49
2019-04-01T10:38:30.808Z,37.58
2019-04-01T10:39:30.808Z,36.95
2019-04-01T10:40:30.821Z,36.14
2019-04-01T10:41:30.782Z,36.24
2019-04-01T10:42:30.813Z,36.54
2019-04-01T10:43:30.773Z,37.04
2019-04-01T10:44:30.754Z,36.32
2019-04-01T10:45:30.741Z,36.53
2019-04-01T10:46:30.738Z,35.82
2019-04-01T10:47:30.838Z,35.82
2019-04-01T10:48:30.712Z,35.50
2019-04-01T10:49:32.291Z,35.82
2019-04-01T10:50:30.740Z,35.63
2019-04-01T10:51:30.733Z,35.73
2019-04-01T10:52:30.725Z,35.82
2019-04-01T10:53:30.710Z,35.82
2019-04-01T10:54:30.751Z,36.65
2019-04-01T10:55:30.693Z,36.73
2019-04-01T10:56:30.665Z,36.51
2019-04-01T10:57:30.735Z,36.08
2019-04-01T10:58:30.640Z,35.28
2019-04-01T10:59:30.606Z,35.58
2019-04-01T11:00:30.588Z,35.58
2019-04-01T11:01:30.588Z,36.49
2019-04-01T11:02:30.595Z,35.57
2019-04-01T11:03:30.638Z,35.75
2019-04-01T11:04:30.546Z,36.36
2019-04-01T11:05:30.560Z,35.04
2019-04-01T11:06:30.560Z,35.24
2019-04-01T11:07:30.555Z,35.35
2019-04-01T11:08:30.529Z,35.16
2019-04-01T11:09:38.085Z,35.57
2019-04-01T11:10:31.490Z,35.07
2019-04-01T11:11:30.458Z,35.50
2019-04-01T11:12:30.452Z,36.41
2019-04-01T11:13:30.458Z,36.00
2019-04-01T11:14:30.438Z,35.31
2019-04-01T11:15:30.458Z,36.63
2019-04-01T11:16:31.829Z,36.51
2019-04-01T11:17:30.450Z,36.61
2019-04-01T11:18:30.398Z,37.71
2019-04-01T11:19:30.389Z,36.36
2019-04-01T11:20:30.379Z,34.74
2019-04-01T11:21:30.411Z,35.33
2019-04-01T11:22:31.787Z,34.64
2019-04-01T11:23:30.340Z,35.57
2019-04-01T11:24:30.344Z,35.68
2019-04-01T11:25:30.325Z,35.90
2019-04-01T11:26:30.301Z,36.21
2019-04-01T11:27:30.334Z,36.82
2019-04-01T11:28:30.285Z,35.99
2019-04-01T11:29:30.274Z,35.38
2019-04-01T11:30:30.263Z,35.28
2019-04-01T11:31:30.258Z,36.59
2019-04-01T11:32:30.283Z,36.69
2019-04-01T11:33:30.318Z,35.66
2019-04-01T11:34:30.214Z,36.37
2019-04-01T11:35:30.256Z,35.85
2019-04-01T11:36:30.234Z,36.36
2019-04-01T11:37:30.188Z,35.53
2019-04-01T11:38:30.179Z,35.63
2019-04-01T11:39:30.206Z,34.72
2019-04-01T11:40:30.172Z,36.04
2019-04-01T11:41:30.198Z,34.52
2019-04-01T11:42:30.187Z,35.04
2019-04-01T11:43:30.177Z,35.44
2019-04-01T11:44:30.155Z,35.24
2019-04-01T11:45:30.099Z,35.06
2019-04-01T11:46:30.086Z,35.85
2019-04-01T11:47:30.096Z,35.24
2019-04-01T11:48:30.103Z,34.92
2019-04-01T11:49:30.121Z,34.43
2019-04-01T11:50:30.082Z,34.87
2019-04-01T11:51:33.007Z,35.39
2019-04-01T11:52:31.023Z,35.50
2019-04-01T11:53:30.007Z,35.61
2019-04-01T11:54:29.991Z,36.22
2019-04-01T11:55:30.001Z,36.22
2019-04-01T11:56:29.970Z,36.83
2019-04-01T11:57:29.960Z,37.02
2019-04-01T11:58:29.950Z,36.49
2019-04-01T11:59:29.971Z,36.78
2019-04-01T12:00:29.931Z,36.27
2019-04-01T12:01:29.913Z,35.35
2019-04-01T12:02:29.915Z,35.16
2019-04-01T12:03:29.914Z,36.78
2019-04-01T12:04:29.921Z,36.46
2019-04-01T12:05:29.872Z,35.35
2019-04-01T12:06:29.925Z,35.46
2019-04-01T12:07:29.853Z,36.07
2019-04-01T12:08:30.642Z,35.57
2019-04-01T12:09:29.823Z,36.80
2019-04-01T12:10:29.837Z,35.99
2019-04-01T12:11:29.844Z,36.07
2019-04-01T12:12:29.805Z,36.96
2019-04-01T12:13:29.794Z,35.44
2019-04-01T12:14:29.788Z,35.75
2019-04-01T12:15:29.778Z,36.25
2019-04-01T12:16:29.775Z,35.83
2019-04-01T12:17:29.746Z,35.94
2019-04-01T12:18:29.735Z,35.82
2019-04-01T12:19:29.726Z,35.72
2019-04-01T12:20:29.707Z,36.00
2019-04-01T12:21:29.730Z,34.62
2019-04-01T12:22:29.687Z,35.65
2019-04-01T12:23:29.700Z,35.97
2019-04-01T12:24:29.679Z,35.77
2019-04-01T12:25:29.671Z,36.47
2019-04-01T12:26:29.648Z,36.88
2019-04-01T12:27:29.659Z,37.16
2019-04-01T12:28:29.637Z,37.25
2019-04-01T12:29:29.617Z,36.32
2019-04-01T12:30:29.614Z,36.51
2019-04-01T12:31:29.590Z,35.19
2019-04-01T12:32:29.620Z,35.73
2019-04-01T12:33:29.571Z,35.83
2019-04-01T12:34:29.561Z,35.86
2019-04-01T12:35:29.554Z,37.59
2019-04-01T12:36:29.541Z,37.29
2019-04-01T12:37:30.197Z,37.47
2019-04-01T12:38:29.522Z,36.74
2019-04-01T12:39:29.511Z,36.34
2019-04-01T12:40:29.586Z,37.15
2019-04-01T12:41:29.483Z,36.85
2019-04-01T12:42:29.483Z,37.25
2019-04-01T12:43:29.507Z,36.46
2019-04-01T12:44:29.462Z,37.07
2019-04-01T12:45:29.444Z,36.56
2019-04-01T12:46:29.436Z,37.37
2019-04-01T12:47:29.424Z,37.55
2019-04-01T12:48:29.454Z,36.54
2019-04-01T12:49:29.396Z,37.55
2019-04-01T12:50:29.399Z,37.16
2019-04-01T12:51:29.385Z,37.77
2019-04-01T12:52:29.415Z,38.87